Terminal Aerodrome Forecast
Issued by NWS Missoula, MT

Home | Current Version | Previous Version | Text Only | Print | Product List | Glossary On
Versions: 1 2 3 4 5 6 7 8 9 10 11 12 13 14 15 16 17 18
000
FTUS45 KMSO 211704 AAB
TAFBTM
TAF AMD
KBTM 211704Z 2117/2212 VRB05KT P6SM VCTS FEW030CB BKN050
     FM211712 21020G30KT 2SM +TSRA BR SCT010CB BKN020 OVC030
     FM211730 30013G21KT 3SM RA BR BKN020 OVC030
     FM212200 28015G25KT P6SM -SHRASN BKN030 OVC040=

USA.gov is the U.S. government's official web portal to all federal, state and local government web resources and services.